sensor_id;sensor_type;location;lat;lon;timestamp;pressure;altitude;pressure_sealevel;temperature;humidity
57068;BME280;43391;47.448;18.904;2023-06-22T00:00:53;99976.91;;;20.62;100.00
57068;BME280;43391;47.448;18.904;2023-06-22T00:03:19;99978.81;;;20.50;100.00
57068;BME280;43391;47.448;18.904;2023-06-22T00:05:47;99982.97;;;20.52;100.00
57068;BME280;43391;47.448;18.904;2023-06-22T00:08:12;99981.44;;;20.50;100.00
57068;BME280;43391;47.448;18.904;2023-06-22T00:10:38;99990.88;;;20.42;100.00
57068;BME280;43391;47.448;18.904;2023-06-22T00:13:05;99993.59;;;20.31;100.00
57068;BME280;43391;47.448;18.904;2023-06-22T00:15:31;99985.25;;;20.26;100.00
57068;BME280;43391;47.448;18.904;2023-06-22T00:17:56;99983.09;;;20.20;100.00
57068;BME280;43391;47.448;18.904;2023-06-22T00:20:22;99976.56;;;20.14;100.00
57068;BME280;43391;47.448;18.904;2023-06-22T00:22:48;99972.97;;;20.15;100.00
57068;BME280;43391;47.448;18.904;2023-06-22T00:25:13;99970.09;;;20.18;100.00
57068;BME280;43391;47.448;18.904;2023-06-22T00:27:39;99981.19;;;20.22;100.00
57068;BME280;43391;47.448;18.904;2023-06-22T00:30:04;99994.81;;;20.27;100.00
57068;BME280;43391;47.448;18.904;2023-06-22T00:32:30;99983.25;;;20.18;100.00
57068;BME280;43391;47.448;18.904;2023-06-22T00:34:55;99976.94;;;20.09;100.00
57068;BME280;43391;47.448;18.904;2023-06-22T00:37:21;99985.81;;;20.08;100.00
57068;BME280;43391;47.448;18.904;2023-06-22T00:39:51;99988.09;;;20.13;100.00
57068;BME280;43391;47.448;18.904;2023-06-22T00:42:17;99981.28;;;20.10;100.00
57068;BME280;43391;47.448;18.904;2023-06-22T00:44:42;99984.03;;;20.09;100.00
57068;BME280;43391;47.448;18.904;2023-06-22T00:47:09;99979.13;;;20.04;100.00
57068;BME280;43391;47.448;18.904;2023-06-22T00:49:34;99976.78;;;20.01;100.00
57068;BME280;43391;47.448;18.904;2023-06-22T00:52:00;99969.22;;;19.96;100.00
57068;BME280;43391;47.448;18.904;2023-06-22T00:54:26;99976.44;;;19.94;100.00
57068;BME280;43391;47.448;18.904;2023-06-22T00:56:54;99984.97;;;19.86;100.00
57068;BME280;43391;47.448;18.904;2023-06-22T00:59:21;99987.03;;;19.83;100.00
57068;BME280;43391;47.448;18.904;2023-06-22T01:01:47;99987.69;;;19.75;100.00
57068;BME280;43391;47.448;18.904;2023-06-22T01:04:12;99980.88;;;19.72;100.00
57068;BME280;43391;47.448;18.904;2023-06-22T01:06:52;99978.09;;;19.74;100.00
57068;BME280;43391;47.448;18.904;2023-06-22T01:09:25;99971.88;;;19.75;100.00
57068;BME280;43391;47.448;18.904;2023-06-22T01:11:55;99975.66;;;19.82;100.00
57068;BME280;43391;47.448;18.904;2023-06-22T01:14:37;99966.22;;;19.79;100.00
57068;BME280;43391;47.448;18.904;2023-06-22T01:17:07;99963.69;;;19.78;100.00
57068;BME280;43391;47.448;18.904;2023-06-22T01:19:46;99967.19;;;19.78;100.00
57068;BME280;43391;47.448;18.904;2023-06-22T01:22:15;99968.97;;;19.78;100.00
57068;BME280;43391;47.448;18.904;2023-06-22T01:30:11;99957.09;;;19.62;100.00
57068;BME280;43391;47.448;18.904;2023-06-22T01:32:40;99956.25;;;19.62;100.00
57068;BME280;43391;47.448;18.904;2023-06-22T01:35:07;99964.41;;;19.59;100.00
57068;BME280;43391;47.448;18.904;2023-06-22T01:37:34;99965.25;;;19.59;100.00
57068;BME280;43391;47.448;18.904;2023-06-22T01:40:01;99956.50;;;19.59;100.00
57068;BME280;43391;47.448;18.904;2023-06-22T01:42:27;99945.97;;;19.59;100.00
57068;BME280;43391;47.448;18.904;2023-06-22T01:44:53;99954.72;;;19.59;100.00
57068;BME280;43391;47.448;18.904;2023-06-22T01:47:20;99952.31;;;19.56;100.00
57068;BME280;43391;47.448;18.904;2023-06-22T01:49:47;99951.19;;;19.49;100.00
57068;BME280;43391;47.448;18.904;2023-06-22T01:52:13;99959.69;;;19.41;100.00
57068;BME280;43391;47.448;18.904;2023-06-22T01:54:39;99956.50;;;19.37;100.00
57068;BME280;43391;47.448;18.904;2023-06-22T01:57:05;99958.66;;;19.32;100.00
57068;BME280;43391;47.448;18.904;2023-06-22T01:59:53;99960.56;;;19.30;100.00
57068;BME280;43391;47.448;18.904;2023-06-22T02:02:24;99964.44;;;19.26;100.00
57068;BME280;43391;47.448;18.904;2023-06-22T02:04:58;99965.53;;;19.23;100.00
57068;BME280;43391;47.448;18.904;2023-06-22T02:07:29;99968.03;;;19.14;100.00
57068;BME280;43391;47.448;18.904;2023-06-22T02:09:57;99960.41;;;19.10;100.00
57068;BME280;43391;47.448;18.904;2023-06-22T02:12:25;99968.03;;;19.14;100.00
57068;BME280;43391;47.448;18.904;2023-06-22T02:14:52;99976.06;;;19.12;100.00
57068;BME280;43391;47.448;18.904;2023-06-22T02:17:18;99974.38;;;19.11;100.00
57068;BME280;43391;47.448;18.904;2023-06-22T02:19:44;99975.34;;;19.10;100.00
57068;BME280;43391;47.448;18.904;2023-06-22T02:22:09;99984.78;;;19.12;100.00
57068;BME280;43391;47.448;18.904;2023-06-22T02:24:35;99974.97;;;19.15;100.00
57068;BME280;43391;47.448;18.904;2023-06-22T02:27:01;99978.56;;;19.14;100.00
57068;BME280;43391;47.448;18.904;2023-06-22T02:29:28;99984.69;;;19.14;100.00
57068;BME280;43391;47.448;18.904;2023-06-22T02:31:54;99987.81;;;19.08;100.00
57068;BME280;43391;47.448;18.904;2023-06-22T02:34:20;99998.56;;;19.05;100.00
57068;BME280;43391;47.448;18.904;2023-06-22T02:36:46;100002.16;;;19.04;100.00
57068;BME280;43391;47.448;18.904;2023-06-22T02:39:23;99996.97;;;19.02;100.00
57068;BME280;43391;47.448;18.904;2023-06-22T02:41:53;99996.41;;;18.98;100.00
57068;BME280;43391;47.448;18.904;2023-06-22T02:44:18;99999.41;;;18.94;100.00
57068;BME280;43391;47.448;18.904;2023-06-22T02:46:44;100006.44;;;18.93;100.00
57068;BME280;43391;47.448;18.904;2023-06-22T02:49:10;100004.78;;;18.92;100.00
57068;BME280;43391;47.448;18.904;2023-06-22T02:51:38;100010.75;;;18.94;100.00
57068;BME280;43391;47.448;18.904;2023-06-22T02:54:05;100010.75;;;18.94;100.00
57068;BME280;43391;47.448;18.904;2023-06-22T02:56:31;100009.78;;;18.95;100.00
57068;BME280;43391;47.448;18.904;2023-06-22T02:58:56;100010.88;;;18.93;100.00
57068;BME280;43391;47.448;18.904;2023-06-22T03:01:26;100003.13;;;18.91;100.00
57068;BME280;43391;47.448;18.904;2023-06-22T03:03:53;99994.50;;;18.89;100.00
57068;BME280;43391;47.448;18.904;2023-06-22T03:06:18;99988.66;;;18.85;100.00
57068;BME280;43391;47.448;18.904;2023-06-22T03:08:51;99988.66;;;18.85;100.00
57068;BME280;43391;47.448;18.904;2023-06-22T03:11:17;99997.38;;;18.86;100.00
57068;BME280;43391;47.448;18.904;2023-06-22T03:13:43;99996.53;;;18.85;100.00
57068;BME280;43391;47.448;18.904;2023-06-22T03:16:08;99987.09;;;18.83;100.00
57068;BME280;43391;47.448;18.904;2023-06-22T03:18:34;99995.94;;;18.82;100.00
57068;BME280;43391;47.448;18.904;2023-06-22T03:20:59;100005.50;;;18.83;100.00
57068;BME280;43391;47.448;18.904;2023-06-22T03:23:27;99998.34;;;18.73;100.00
57068;BME280;43391;47.448;18.904;2023-06-22T03:25:52;99995.47;;;18.77;100.00
57068;BME280;43391;47.448;18.904;2023-06-22T03:28:20;99988.88;;;18.82;100.00
57068;BME280;43391;47.448;18.904;2023-06-22T03:30:46;99989.22;;;18.89;100.00
57068;BME280;43391;47.448;18.904;2023-06-22T03:33:11;99989.81;;;18.93;100.00
57068;BME280;43391;47.448;18.904;2023-06-22T03:35:37;99985.66;;;18.90;100.00
57068;BME280;43391;47.448;18.904;2023-06-22T03:38:02;99991.25;;;18.97;100.00
57068;BME280;43391;47.448;18.904;2023-06-22T03:40:27;99993.88;;;18.97;100.00
57068;BME280;43391;47.448;18.904;2023-06-22T03:42:53;99987.81;;;18.96;100.00
57068;BME280;43391;47.448;18.904;2023-06-22T03:45:18;99985.88;;;18.98;100.00
57068;BME280;43391;47.448;18.904;2023-06-22T03:47:43;99992.47;;;19.04;100.00
57068;BME280;43391;47.448;18.904;2023-06-22T03:50:09;99991.53;;;19.05;100.00
57068;BME280;43391;47.448;18.904;2023-06-22T03:52:34;99985.41;;;19.05;100.00
57068;BME280;43391;47.448;18.904;2023-06-22T03:55:00;99993.31;;;19.05;100.00
57068;BME280;43391;47.448;18.904;2023-06-22T03:57:25;99995.94;;;19.05;100.00
57068;BME280;43391;47.448;18.904;2023-06-22T03:59:51;99990.69;;;19.05;100.00
57068;BME280;43391;47.448;18.904;2023-06-22T04:02:16;99994.16;;;19.05;100.00
57068;BME280;43391;47.448;18.904;2023-06-22T04:04:41;99990.28;;;19.09;100.00
57068;BME280;43391;47.448;18.904;2023-06-22T04:07:07;100004.88;;;19.14;100.00
57068;BME280;43391;47.448;18.904;2023-06-22T04:09:32;99994.81;;;19.19;100.00
57068;BME280;43391;47.448;18.904;2023-06-22T04:11:58;99988.25;;;19.24;100.00
57068;BME280;43391;47.448;18.904;2023-06-22T04:14:23;99991.06;;;19.33;100.00
57068;BME280;43391;47.448;18.904;2023-06-22T04:16:49;99989.41;;;19.32;100.00
57068;BME280;43391;47.448;18.904;2023-06-22T04:19:14;99983.91;;;19.35;100.00
57068;BME280;43391;47.448;18.904;2023-06-22T04:21:43;99984.25;;;19.42;100.00
57068;BME280;43391;47.448;18.904;2023-06-22T04:24:10;99984.69;;;19.47;100.00
57068;BME280;43391;47.448;18.904;2023-06-22T04:26:35;99995.22;;;19.47;100.00
57068;BME280;43391;47.448;18.904;2023-06-22T04:29:03;99996.91;;;19.48;100.00
57068;BME280;43391;47.448;18.904;2023-06-22T04:31:33;99992.31;;;19.50;100.00
57068;BME280;43391;47.448;18.904;2023-06-22T04:34:06;99997.94;;;19.57;100.00
57068;BME280;43391;47.448;18.904;2023-06-22T04:36:40;99996.59;;;19.62;100.00
57068;BME280;43391;47.448;18.904;2023-06-22T04:39:07;100003.03;;;19.70;100.00
57068;BME280;43391;47.448;18.904;2023-06-22T04:41:35;100010.53;;;19.74;100.00
57068;BME280;43391;47.448;18.904;2023-06-22T04:44:08;100018.38;;;19.86;100.00
57068;BME280;43391;47.448;18.904;2023-06-22T04:46:33;100023.63;;;19.86;100.00
57068;BME280;43391;47.448;18.904;2023-06-22T04:49:03;100023.50;;;19.87;100.00
57068;BME280;43391;47.448;18.904;2023-06-22T04:51:31;100025.78;;;19.92;100.00
57068;BME280;43391;47.448;18.904;2023-06-22T04:53:56;100024.94;;;19.91;100.00
57068;BME280;43391;47.448;18.904;2023-06-22T04:56:26;100028.06;;;19.97;100.00
57068;BME280;43391;47.448;18.904;2023-06-22T04:58:53;100026.00;;;20.00;100.00
57068;BME280;43391;47.448;18.904;2023-06-22T05:01:22;100034.34;;;20.05;100.00
57068;BME280;43391;47.448;18.904;2023-06-22T05:03:47;100033.00;;;20.11;100.00
57068;BME280;43391;47.448;18.904;2023-06-22T05:06:13;100034.16;;;20.18;100.00
57068;BME280;43391;47.448;18.904;2023-06-22T05:08:39;100038.31;;;20.21;100.00
57068;BME280;43391;47.448;18.904;2023-06-22T05:11:05;100044.50;;;20.31;100.00
57068;BME280;43391;47.448;18.904;2023-06-22T05:13:30;100050.09;;;20.38;100.00
57068;BME280;43391;47.448;18.904;2023-06-22T05:15:56;100054.31;;;20.51;100.00
57068;BME280;43391;47.448;18.904;2023-06-22T05:18:27;100050.63;;;20.63;100.00
57068;BME280;43391;47.448;18.904;2023-06-22T05:20:54;100055.63;;;20.66;100.00
57068;BME280;43391;47.448;18.904;2023-06-22T05:23:20;100068.16;;;20.74;100.00
57068;BME280;43391;47.448;18.904;2023-06-22T05:25:45;100062.56;;;20.89;100.00
57068;BME280;43391;47.448;18.904;2023-06-22T05:28:10;100061.19;;;20.94;100.00
57068;BME280;43391;47.448;18.904;2023-06-22T05:30:37;100060.97;;;21.07;100.00
57068;BME280;43391;47.448;18.904;2023-06-22T05:33:02;100064.59;;;21.26;100.00
57068;BME280;43391;47.448;18.904;2023-06-22T05:35:27;100069.38;;;21.42;100.00
57068;BME280;43391;47.448;18.904;2023-06-22T05:37:53;100075.75;;;21.49;100.00
57068;BME280;43391;47.448;18.904;2023-06-22T05:40:18;100077.03;;;21.55;100.00
57068;BME280;43391;47.448;18.904;2023-06-22T05:42:44;100080.22;;;21.59;100.00
57068;BME280;43391;47.448;18.904;2023-06-22T05:45:09;100071.47;;;21.68;100.00
57068;BME280;43391;47.448;18.904;2023-06-22T05:47:35;100078.03;;;21.74;100.00
57068;BME280;43391;47.448;18.904;2023-06-22T05:50:00;100082.22;;;21.86;100.00
57068;BME280;43391;47.448;18.904;2023-06-22T05:52:25;100086.91;;;22.02;100.00
57068;BME280;43391;47.448;18.904;2023-06-22T05:54:51;100088.41;;;22.15;100.00
57068;BME280;43391;47.448;18.904;2023-06-22T05:57:16;100079.94;;;22.21;100.00
57068;BME280;43391;47.448;18.904;2023-06-22T05:59:41;100083.94;;;22.35;100.00
57068;BME280;43391;47.448;18.904;2023-06-22T06:02:07;100092.81;;;22.54;100.00
57068;BME280;43391;47.448;18.904;2023-06-22T06:04:32;100081.25;;;22.65;100.00
57068;BME280;43391;47.448;18.904;2023-06-22T06:06:57;100079.59;;;22.64;100.00
57068;BME280;43391;47.448;18.904;2023-06-22T06:09:23;100088.59;;;22.71;100.00
57068;BME280;43391;47.448;18.904;2023-06-22T06:11:48;100082.84;;;22.86;100.00
57068;BME280;43391;47.448;18.904;2023-06-22T06:14:13;100087.09;;;22.96;100.00
57068;BME280;43391;47.448;18.904;2023-06-22T06:16:39;100083.19;;;23.01;100.00
57068;BME280;43391;47.448;18.904;2023-06-22T06:19:04;100075.34;;;23.09;100.00
57068;BME280;43391;47.448;18.904;2023-06-22T06:21:29;100078.78;;;23.19;100.00
57068;BME280;43391;47.448;18.904;2023-06-22T06:23:55;100082.63;;;23.35;100.00
57068;BME280;43391;47.448;18.904;2023-06-22T06:26:20;100085.13;;;23.55;100.00
57068;BME280;43391;47.448;18.904;2023-06-22T06:28:53;100079.00;;;23.72;99.88
57068;BME280;43391;47.448;18.904;2023-06-22T06:31:20;100082.44;;;23.91;97.71
57068;BME280;43391;47.448;18.904;2023-06-22T06:33:46;100080.25;;;24.05;96.54
57068;BME280;43391;47.448;18.904;2023-06-22T06:36:11;100073.91;;;24.15;96.01
57068;BME280;43391;47.448;18.904;2023-06-22T06:38:36;100074.03;;;24.32;92.72
57068;BME280;43391;47.448;18.904;2023-06-22T06:41:02;100069.47;;;24.51;90.58
57068;BME280;43391;47.448;18.904;2023-06-22T06:43:27;100068.31;;;24.53;90.42
57068;BME280;43391;47.448;18.904;2023-06-22T06:45:52;100068.47;;;24.52;92.10
57068;BME280;43391;47.448;18.904;2023-06-22T06:48:18;100068.16;;;24.55;91.48
57068;BME280;43391;47.448;18.904;2023-06-22T06:50:43;100059.56;;;24.61;87.99
57068;BME280;43391;47.448;18.904;2023-06-22T06:53:09;100062.44;;;24.68;86.79
57068;BME280;43391;47.448;18.904;2023-06-22T06:55:34;100065.50;;;24.81;87.34
57068;BME280;43391;47.448;18.904;2023-06-22T06:58:01;100074.84;;;24.94;84.85
57068;BME280;43391;47.448;18.904;2023-06-22T07:00:27;100069.09;;;25.07;85.20
57068;BME280;43391;47.448;18.904;2023-06-22T07:02:52;100068.28;;;25.15;83.88
57068;BME280;43391;47.448;18.904;2023-06-22T07:05:18;100064.31;;;25.27;81.16
57068;BME280;43391;47.448;18.904;2023-06-22T07:07:43;100058.38;;;25.42;81.22
57068;BME280;43391;47.448;18.904;2023-06-22T07:10:09;100060.41;;;25.56;80.52
57068;BME280;43391;47.448;18.904;2023-06-22T07:12:35;100053.44;;;25.72;80.68
57068;BME280;43391;47.448;18.904;2023-06-22T07:15:05;100053.59;;;25.87;80.78
57068;BME280;43391;47.448;18.904;2023-06-22T07:17:33;100056.09;;;25.97;78.95
57068;BME280;43391;47.448;18.904;2023-06-22T07:19:58;100057.56;;;26.08;77.57
57068;BME280;43391;47.448;18.904;2023-06-22T07:22:23;100059.06;;;26.19;72.45
57068;BME280;43391;47.448;18.904;2023-06-22T07:24:49;100059.06;;;26.27;75.80
57068;BME280;43391;47.448;18.904;2023-06-22T07:27:15;100060.41;;;26.31;72.65
57068;BME280;43391;47.448;18.904;2023-06-22T07:29:43;100058.69;;;26.47;73.28
57068;BME280;43391;47.448;18.904;2023-06-22T07:32:08;100062.69;;;26.51;70.67
57068;BME280;43391;47.448;18.904;2023-06-22T07:34:34;100058.63;;;26.63;73.35
57068;BME280;43391;47.448;18.904;2023-06-22T07:36:59;100056.91;;;26.79;70.65
57068;BME280;43391;47.448;18.904;2023-06-22T07:39:25;100051.91;;;26.84;73.03
57068;BME280;43391;47.448;18.904;2023-06-22T07:41:52;100059.34;;;26.97;70.50
57068;BME280;43391;47.448;18.904;2023-06-22T07:44:18;100059.50;;;27.04;67.51
57068;BME280;43391;47.448;18.904;2023-06-22T07:46:43;100050.06;;;26.85;70.33
57068;BME280;43391;47.448;18.904;2023-06-22T07:49:08;100048.91;;;26.87;71.77
57068;BME280;43391;47.448;18.904;2023-06-22T07:51:34;100052.91;;;26.83;70.94
57068;BME280;43391;47.448;18.904;2023-06-22T07:53:59;100054.03;;;26.97;69.91
57068;BME280;43391;47.448;18.904;2023-06-22T07:56:25;100051.81;;;27.09;69.27
57068;BME280;43391;47.448;18.904;2023-06-22T07:58:50;100048.75;;;27.21;70.36
57068;BME280;43391;47.448;18.904;2023-06-22T08:01:16;100046.78;;;27.14;70.88
57068;BME280;43391;47.448;18.904;2023-06-22T08:03:42;100042.84;;;27.33;67.63
57068;BME280;43391;47.448;18.904;2023-06-22T08:06:08;100044.44;;;27.43;72.56
57068;BME280;43391;47.448;18.904;2023-06-22T08:08:35;100042.06;;;27.48;73.40
57068;BME280;43391;47.448;18.904;2023-06-22T08:11:00;100049.59;;;27.68;71.86
57068;BME280;43391;47.448;18.904;2023-06-22T08:13:26;100047.34;;;27.80;71.63
57068;BME280;43391;47.448;18.904;2023-06-22T08:15:51;100056.03;;;27.97;69.01
57068;BME280;43391;47.448;18.904;2023-06-22T08:18:17;100050.50;;;27.98;69.70
57068;BME280;43391;47.448;18.904;2023-06-22T08:20:42;100043.31;;;27.99;68.51
57068;BME280;43391;47.448;18.904;2023-06-22T08:23:07;100037.91;;;28.22;70.38
57068;BME280;43391;47.448;18.904;2023-06-22T08:25:34;100041.44;;;28.23;65.42
57068;BME280;43391;47.448;18.904;2023-06-22T08:28:00;100045.47;;;28.19;63.64
57068;BME280;43391;47.448;18.904;2023-06-22T08:30:25;100040.31;;;28.17;64.11
57068;BME280;43391;47.448;18.904;2023-06-22T08:32:51;100042.66;;;28.35;65.08
57068;BME280;43391;47.448;18.904;2023-06-22T08:35:16;100042.00;;;28.48;64.60
57068;BME280;43391;47.448;18.904;2023-06-22T08:37:42;100033.63;;;28.51;64.21
57068;BME280;43391;47.448;18.904;2023-06-22T08:40:08;100033.63;;;28.67;64.36
57068;BME280;43391;47.448;18.904;2023-06-22T08:42:35;100029.72;;;28.84;65.16
57068;BME280;43391;47.448;18.904;2023-06-22T08:45:01;100026.19;;;28.99;64.26
57068;BME280;43391;47.448;18.904;2023-06-22T08:47:29;100024.75;;;29.18;64.48
57068;BME280;43391;47.448;18.904;2023-06-22T08:49:54;100024.13;;;28.94;63.54
57068;BME280;43391;47.448;18.904;2023-06-22T08:52:20;100021.25;;;28.96;63.60
57068;BME280;43391;47.448;18.904;2023-06-22T08:54:46;100017.00;;;29.23;66.21
57068;BME280;43391;47.448;18.904;2023-06-22T08:57:12;100021.59;;;29.29;62.53
57068;BME280;43391;47.448;18.904;2023-06-22T08:59:37;100016.97;;;29.16;64.34
57068;BME280;43391;47.448;18.904;2023-06-22T09:02:02;100014.72;;;29.20;65.42
57068;BME280;43391;47.448;18.904;2023-06-22T09:04:28;100015.41;;;29.29;62.61
57068;BME280;43391;47.448;18.904;2023-06-22T09:06:53;100014.41;;;29.30;63.49
57068;BME280;43391;47.448;18.904;2023-06-22T09:09:19;100012.22;;;29.40;63.43
57068;BME280;43391;47.448;18.904;2023-06-22T09:11:44;100002.72;;;29.53;62.78
57068;BME280;43391;47.448;18.904;2023-06-22T09:14:10;100009.31;;;29.57;64.05
57068;BME280;43391;47.448;18.904;2023-06-22T09:16:36;100001.22;;;29.72;63.86
57068;BME280;43391;47.448;18.904;2023-06-22T09:19:01;100002.50;;;29.83;63.36
57068;BME280;43391;47.448;18.904;2023-06-22T09:21:27;100000.63;;;29.77;64.34
57068;BME280;43391;47.448;18.904;2023-06-22T09:23:52;100003.53;;;29.82;62.81
57068;BME280;43391;47.448;18.904;2023-06-22T09:26:18;100003.16;;;29.85;63.00
57068;BME280;43391;47.448;18.904;2023-06-22T09:28:44;99993.09;;;29.87;61.59
57068;BME280;43391;47.448;18.904;2023-06-22T09:31:09;99998.88;;;29.91;62.88
57068;BME280;43391;47.448;18.904;2023-06-22T09:33:35;99994.19;;;30.00;62.64
57068;BME280;43391;47.448;18.904;2023-06-22T09:36:01;99998.78;;;30.06;62.21
57068;BME280;43391;47.448;18.904;2023-06-22T09:38:26;99993.19;;;30.07;61.05
57068;BME280;43391;47.448;18.904;2023-06-22T09:40:52;99996.44;;;29.96;59.97
57068;BME280;43391;47.448;18.904;2023-06-22T09:43:17;99995.91;;;29.79;60.54
57068;BME280;43391;47.448;18.904;2023-06-22T09:45:42;99991.09;;;29.67;61.56
57068;BME280;43391;47.448;18.904;2023-06-22T09:48:08;99994.41;;;29.69;62.33
57068;BME280;43391;47.448;18.904;2023-06-22T09:50:35;99989.38;;;29.88;61.15
57068;BME280;43391;47.448;18.904;2023-06-22T09:53:00;99994.53;;;29.90;60.75
57068;BME280;43391;47.448;18.904;2023-06-22T09:55:25;99989.31;;;29.75;60.87
57068;BME280;43391;47.448;18.904;2023-06-22T09:57:51;99998.56;;;29.79;62.52
57068;BME280;43391;47.448;18.904;2023-06-22T10:00:16;99994.91;;;29.87;60.31
57068;BME280;43391;47.448;18.904;2023-06-22T10:02:42;99988.81;;;29.93;65.30
57068;BME280;43391;47.448;18.904;2023-06-22T10:05:08;99988.69;;;30.08;61.72
57068;BME280;43391;47.448;18.904;2023-06-22T10:07:33;99986.69;;;30.17;62.58
57068;BME280;43391;47.448;18.904;2023-06-22T10:09:59;99991.63;;;30.13;62.28
57068;BME280;43391;47.448;18.904;2023-06-22T10:12:26;99991.25;;;30.16;65.88
57068;BME280;43391;47.448;18.904;2023-06-22T10:14:52;99986.13;;;30.21;63.60
57068;BME280;43391;47.448;18.904;2023-06-22T10:17:17;99982.00;;;30.19;62.94
57068;BME280;43391;47.448;18.904;2023-06-22T10:19:43;99980.31;;;30.18;64.24
57068;BME280;43391;47.448;18.904;2023-06-22T10:22:08;99984.69;;;30.26;64.69
57068;BME280;43391;47.448;18.904;2023-06-22T10:24:34;99975.66;;;30.27;68.16
57068;BME280;43391;47.448;18.904;2023-06-22T10:26:59;99981.50;;;30.50;65.12
57068;BME280;43391;47.448;18.904;2023-06-22T10:29:24;99975.59;;;30.69;62.17
57068;BME280;43391;47.448;18.904;2023-06-22T10:31:50;99977.66;;;30.67;59.80
57068;BME280;43391;47.448;18.904;2023-06-22T10:34:15;99980.34;;;30.67;60.41
57068;BME280;43391;47.448;18.904;2023-06-22T10:36:40;99977.50;;;30.75;58.09
57068;BME280;43391;47.448;18.904;2023-06-22T10:39:06;99970.22;;;30.62;60.25
57068;BME280;43391;47.448;18.904;2023-06-22T10:41:31;99981.13;;;30.60;58.74
57068;BME280;43391;47.448;18.904;2023-06-22T10:43:57;99974.81;;;30.75;61.34
57068;BME280;43391;47.448;18.904;2023-06-22T10:46:24;99971.97;;;30.90;59.42
57068;BME280;43391;47.448;18.904;2023-06-22T10:48:51;99974.66;;;30.97;58.55
57068;BME280;43391;47.448;18.904;2023-06-22T10:51:19;99966.41;;;30.92;57.44
57068;BME280;43391;47.448;18.904;2023-06-22T10:53:44;99963.72;;;30.98;61.39
57068;BME280;43391;47.448;18.904;2023-06-22T10:56:10;99962.31;;;31.02;57.21
57068;BME280;43391;47.448;18.904;2023-06-22T10:58:36;99966.22;;;31.07;61.17
57068;BME280;43391;47.448;18.904;2023-06-22T11:01:01;99976.75;;;31.08;63.48
57068;BME280;43391;47.448;18.904;2023-06-22T11:03:28;99976.34;;;31.18;60.58
57068;BME280;43391;47.448;18.904;2023-06-22T11:05:53;99976.16;;;31.33;58.61
57068;BME280;43391;47.448;18.904;2023-06-22T11:08:19;99964.41;;;31.34;63.82
57068;BME280;43391;47.448;18.904;2023-06-22T11:10:44;99964.78;;;31.24;65.05
57068;BME280;43391;47.448;18.904;2023-06-22T11:13:10;99961.09;;;31.12;64.27
57068;BME280;43391;47.448;18.904;2023-06-22T11:15:36;99963.34;;;31.08;62.03
57068;BME280;43391;47.448;18.904;2023-06-22T11:18:01;99959.44;;;31.04;62.90
57068;BME280;43391;47.448;18.904;2023-06-22T11:20:27;99956.13;;;31.09;62.63
57068;BME280;43391;47.448;18.904;2023-06-22T11:22:52;99953.41;;;30.88;63.39
57068;BME280;43391;47.448;18.904;2023-06-22T11:25:17;99958.78;;;30.88;61.47
57068;BME280;43391;47.448;18.904;2023-06-22T11:27:43;99948.06;;;31.02;60.31
57068;BME280;43391;47.448;18.904;2023-06-22T11:30:08;99944.16;;;31.11;61.61
57068;BME280;43391;47.448;18.904;2023-06-22T11:32:34;99953.47;;;31.15;59.32
57068;BME280;43391;47.448;18.904;2023-06-22T11:34:59;99955.69;;;31.19;60.62
57068;BME280;43391;47.448;18.904;2023-06-22T11:37:25;99951.78;;;31.21;58.39
57068;BME280;43391;47.448;18.904;2023-06-22T11:39:51;99942.75;;;31.36;61.10
57068;BME280;43391;47.448;18.904;2023-06-22T11:42:17;99947.88;;;31.58;58.33
57068;BME280;43391;47.448;18.904;2023-06-22T11:44:42;99938.00;;;31.72;57.27
57068;BME280;43391;47.448;18.904;2023-06-22T11:47:08;99927.00;;;31.80;57.51
57068;BME280;43391;47.448;18.904;2023-06-22T11:49:33;99934.44;;;31.85;56.81
57068;BME280;43391;47.448;18.904;2023-06-22T11:51:59;99933.81;;;31.96;55.75
57068;BME280;43391;47.448;18.904;2023-06-22T11:54:24;99938.34;;;32.02;54.66
57068;BME280;43391;47.448;18.904;2023-06-22T11:56:49;99937.50;;;32.08;55.06
57068;BME280;43391;47.448;18.904;2023-06-22T11:59:15;99933.28;;;32.26;55.07
57068;BME280;43391;47.448;18.904;2023-06-22T12:01:40;99934.28;;;32.39;56.18
57068;BME280;43391;47.448;18.904;2023-06-22T12:04:05;99928.53;;;32.35;53.46
57068;BME280;43391;47.448;18.904;2023-06-22T12:06:35;99926.03;;;32.33;51.01
57068;BME280;43391;47.448;18.904;2023-06-22T12:09:03;99923.94;;;32.35;52.16
57068;BME280;43391;47.448;18.904;2023-06-22T12:11:29;99920.69;;;32.27;56.24
57068;BME280;43391;47.448;18.904;2023-06-22T12:13:55;99923.56;;;32.32;54.31
57068;BME280;43391;47.448;18.904;2023-06-22T12:16:20;99916.34;;;32.32;52.65
57068;BME280;43391;47.448;18.904;2023-06-22T12:18:47;99916.25;;;32.53;52.08
57068;BME280;43391;47.448;18.904;2023-06-22T12:21:13;99904.59;;;32.66;51.56
57068;BME280;43391;47.448;18.904;2023-06-22T12:23:38;99913.34;;;32.61;50.66
57068;BME280;43391;47.448;18.904;2023-06-22T12:26:04;99908.72;;;32.68;49.20
57068;BME280;43391;47.448;18.904;2023-06-22T12:28:29;99907.03;;;32.74;49.84
57068;BME280;43391;47.448;18.904;2023-06-22T12:30:54;99895.09;;;32.70;48.26
57068;BME280;43391;47.448;18.904;2023-06-22T12:33:20;99897.88;;;32.82;48.82
57068;BME280;43391;47.448;18.904;2023-06-22T12:35:45;99897.16;;;33.00;49.50
57068;BME280;43391;47.448;18.904;2023-06-22T12:38:11;99893.16;;;33.09;47.70
57068;BME280;43391;47.448;18.904;2023-06-22T12:40:36;99893.81;;;33.05;49.66